Strona główna
METAR-TAF:

METAR-TAF

Lotnisko :

Anderson, Indiana, Stany Zjednoczone

Szerokość geograficzna: 40-07N, Długość geograficzna: 085-37W, wysokość: 280 m

Aktualna obserwacja pogody

Raport powstał 8 minut temu, godzina 17:59 UTC
Wiatr 3 kt od północ
Temperatura 30°C
Wilgotność 52%
Ciśnienie 1020 hPa
Widzialność: 16.1 km
bezchmurnie

METAR: KAID 151759Z 35003KT 10SM CLR 30/19 A3012 RMK AO2

czas: 14:07 (18:07 UTC)


TAF: brakujący

Obserwacja i prognoza pogody dla ponad 4000 lotnisk (raport METAR i TAF).

Dostępne stacje oznaczono żółtymi i czerwonymi punktami na mapie.

Najedź kursorem aby zobaczyć nazwę stacji.

Kliknij aby zobaczyć obserwacje i prognozy pogody.

Aby zmienić mapę: kliknij na zielony przycisk z czarnym krzyżykiem, aby powiększyć; na zielony przycisk z myślnikiem, aby pomniejszyć; na zielone strzałki, aby przejść do map sąsiednich.


METAR-TAF: